createdAt,value
2018-12-21T00:00:24.636Z,7.70
2018-12-21T00:02:52.111Z,7.70
2018-12-21T00:05:19.578Z,7.60
2018-12-21T00:07:47.044Z,7.60
2018-12-21T00:10:14.485Z,7.60
2018-12-21T00:12:42.000Z,7.70
2018-12-21T00:15:09.517Z,7.70
2018-12-21T00:17:37.121Z,7.70
2018-12-21T00:20:05.833Z,7.70
2018-12-21T00:22:33.282Z,7.70
2018-12-21T00:25:00.762Z,7.70
2018-12-21T00:27:28.202Z,7.70
2018-12-21T00:29:55.665Z,7.70
2018-12-21T00:32:28.784Z,7.80
2018-12-21T00:35:02.112Z,7.70
2018-12-21T00:37:35.382Z,7.80
2018-12-21T00:40:09.637Z,7.80
2018-12-21T00:42:41.993Z,7.80
2018-12-21T00:45:11.430Z,7.70
2018-12-21T00:47:38.895Z,7.70
2018-12-21T00:50:08.341Z,7.70
2018-12-21T00:52:35.797Z,7.80
2018-12-21T00:55:03.836Z,7.80
2018-12-21T00:57:31.337Z,7.70
2018-12-21T00:59:58.800Z,7.80
2018-12-21T01:02:26.260Z,7.80
2018-12-21T01:04:53.716Z,7.80
2018-12-21T01:07:21.199Z,7.80
2018-12-21T01:09:48.706Z,7.80
2018-12-21T01:12:16.167Z,7.80
2018-12-21T01:14:43.804Z,7.70
2018-12-21T01:17:11.260Z,7.70
2018-12-21T01:19:38.879Z,7.70
2018-12-21T01:22:06.355Z,7.80
2018-12-21T01:24:33.838Z,7.80
2018-12-21T01:27:01.278Z,7.80
2018-12-21T01:29:28.751Z,7.80
2018-12-21T01:31:56.209Z,7.80
2018-12-21T01:34:23.690Z,7.80
2018-12-21T01:36:51.180Z,7.90
2018-12-21T01:39:18.622Z,7.90
2018-12-21T01:41:46.121Z,7.90
2018-12-21T01:44:13.562Z,7.90
2018-12-21T01:46:41.064Z,7.90
2018-12-21T01:49:08.614Z,7.90
2018-12-21T01:51:36.065Z,7.90
2018-12-21T01:54:03.526Z,7.80
2018-12-21T01:56:30.985Z,7.80
2018-12-21T01:58:58.431Z,7.80
2018-12-21T02:01:25.886Z,7.80
2018-12-21T02:03:53.366Z,7.80
2018-12-21T02:06:20.866Z,7.80
2018-12-21T02:08:48.321Z,7.90
2018-12-21T02:11:15.768Z,7.90
2018-12-21T02:13:43.250Z,7.90
2018-12-21T02:16:10.717Z,7.90
2018-12-21T02:18:38.278Z,7.90
2018-12-21T02:21:05.736Z,7.90
2018-12-21T02:23:33.185Z,8.00
2018-12-21T02:26:00.639Z,8.00
2018-12-21T02:28:28.130Z,8.00
2018-12-21T02:30:55.588Z,8.00
2018-12-21T02:33:23.026Z,8.00
2018-12-21T02:35:50.479Z,8.00
2018-12-21T02:38:17.940Z,8.00
2018-12-21T02:40:45.490Z,8.10
2018-12-21T02:43:12.952Z,8.10
2018-12-21T02:45:40.592Z,8.00
2018-12-21T02:48:08.208Z,8.10
2018-12-21T02:50:36.021Z,8.00
2018-12-21T02:53:03.495Z,8.00
2018-12-21T02:55:31.106Z,8.10
2018-12-21T02:57:58.567Z,8.10
2018-12-21T03:00:26.001Z,8.10
2018-12-21T03:02:53.461Z,8.10
2018-12-21T03:05:20.964Z,8.20
2018-12-21T03:07:48.433Z,8.20
2018-12-21T03:10:15.878Z,8.20
2018-12-21T03:12:43.340Z,8.20
2018-12-21T03:15:10.842Z,8.30
2018-12-21T03:17:38.442Z,8.30
2018-12-21T03:20:06.052Z,8.30
2018-12-21T03:22:33.508Z,8.30
2018-12-21T03:25:00.954Z,8.20
2018-12-21T03:27:28.436Z,8.20
2018-12-21T03:29:55.902Z,8.20
2018-12-21T03:32:23.375Z,8.20
2018-12-21T03:34:50.816Z,8.20
2018-12-21T03:37:18.266Z,8.10
2018-12-21T03:39:45.778Z,8.10
2018-12-21T03:42:13.477Z,8.10
2018-12-21T03:44:40.942Z,8.10
2018-12-21T03:47:08.452Z,8.10
2018-12-21T03:49:35.904Z,8.10
2018-12-21T03:52:03.346Z,8.10
2018-12-21T03:54:30.808Z,8.00
2018-12-21T03:56:58.244Z,8.00
2018-12-21T03:59:25.691Z,7.90
2018-12-21T04:01:53.143Z,7.90
2018-12-21T04:04:20.633Z,7.90
2018-12-21T04:06:48.077Z,7.90
2018-12-21T04:09:15.536Z,7.90
2018-12-21T04:11:42.992Z,7.90
2018-12-21T04:14:10.494Z,7.90
2018-12-21T04:16:38.018Z,7.90
2018-12-21T04:19:05.453Z,7.90
2018-12-21T04:21:32.911Z,7.90
2018-12-21T04:24:00.371Z,7.90
2018-12-21T04:26:27.849Z,7.90
2018-12-21T04:28:55.301Z,7.90
2018-12-21T04:31:22.760Z,8.00
2018-12-21T04:33:50.199Z,8.00
2018-12-21T04:36:17.692Z,8.00
2018-12-21T04:38:45.253Z,8.10
2018-12-21T04:41:12.727Z,8.10
2018-12-21T04:43:40.191Z,8.10
2018-12-21T04:46:07.967Z,8.10
2018-12-21T04:48:35.453Z,8.10
2018-12-21T04:51:02.913Z,8.20
2018-12-21T04:53:30.362Z,8.20
2018-12-21T04:55:57.820Z,8.20
2018-12-21T04:58:25.266Z,8.30
2018-12-21T05:00:52.808Z,8.30
2018-12-21T05:03:20.369Z,8.30
2018-12-21T05:05:47.826Z,8.30
2018-12-21T05:08:15.302Z,8.40
2018-12-21T05:10:42.752Z,8.40
2018-12-21T05:13:10.244Z,8.40
2018-12-21T05:15:37.705Z,8.40
2018-12-21T05:18:05.190Z,8.50
2018-12-21T05:20:32.644Z,8.50
2018-12-21T05:23:00.122Z,8.50
2018-12-21T05:25:27.605Z,8.50
2018-12-21T05:27:55.060Z,8.50
2018-12-21T05:30:22.569Z,8.50
2018-12-21T05:32:50.020Z,8.50
2018-12-21T05:35:17.480Z,8.60
2018-12-21T05:37:44.965Z,8.60
2018-12-21T05:40:12.407Z,8.60
2018-12-21T05:42:39.858Z,8.50
2018-12-21T05:45:07.402Z,8.50
2018-12-21T05:47:34.860Z,8.50
2018-12-21T05:50:02.361Z,8.50
2018-12-21T05:52:29.820Z,8.50
2018-12-21T05:54:57.267Z,8.50
2018-12-21T05:57:24.769Z,8.50
2018-12-21T05:59:52.242Z,8.50
2018-12-21T06:02:19.686Z,8.50
2018-12-21T06:04:47.202Z,8.50
2018-12-21T06:07:14.662Z,8.50
2018-12-21T06:09:42.123Z,8.50
2018-12-21T06:12:09.562Z,8.60
2018-12-21T06:14:37.037Z,8.60
2018-12-21T06:17:04.535Z,8.60
2018-12-21T06:19:31.989Z,8.60
2018-12-21T06:21:59.527Z,8.70
2018-12-21T06:24:26.975Z,8.70
2018-12-21T06:26:54.426Z,8.70
2018-12-21T06:29:21.884Z,8.70
2018-12-21T06:31:49.365Z,8.60
2018-12-21T06:34:16.832Z,8.60
2018-12-21T06:36:44.304Z,8.60
2018-12-21T06:39:11.749Z,8.60
2018-12-21T06:41:39.794Z,8.60
2018-12-21T06:44:07.278Z,8.60
2018-12-21T06:46:34.729Z,8.60
2018-12-21T06:49:02.173Z,8.60
2018-12-21T06:51:29.630Z,8.60
2018-12-21T06:53:57.084Z,8.60
2018-12-21T06:56:24.557Z,8.60
2018-12-21T06:58:51.985Z,8.50
2018-12-21T07:01:19.444Z,8.50
2018-12-21T07:03:46.889Z,8.50
2018-12-21T07:06:14.418Z,8.40
2018-12-21T07:08:41.889Z,8.40
2018-12-21T07:11:09.377Z,8.40
2018-12-21T07:13:36.837Z,8.40
2018-12-21T07:16:04.334Z,8.40
2018-12-21T07:18:31.798Z,8.40
2018-12-21T07:20:59.284Z,8.40
2018-12-21T07:23:27.318Z,8.30
2018-12-21T07:25:55.246Z,8.30
2018-12-21T07:28:22.724Z,8.30
2018-12-21T07:30:50.216Z,8.30
2018-12-21T07:36:08.866Z,8.30
2018-12-21T07:38:36.697Z,8.30
2018-12-21T07:41:04.189Z,8.30
2018-12-21T07:43:31.649Z,8.30
2018-12-21T07:45:59.093Z,8.30
2018-12-21T07:48:26.547Z,8.40
2018-12-21T07:50:54.003Z,8.30
2018-12-21T07:53:21.441Z,8.40
2018-12-21T07:55:48.889Z,8.40
2018-12-21T07:58:16.345Z,8.30
2018-12-21T08:00:43.786Z,8.30
2018-12-21T08:03:11.263Z,8.40
2018-12-21T08:05:38.720Z,8.40
2018-12-21T08:08:06.178Z,8.40
2018-12-21T08:10:33.668Z,8.40
2018-12-21T08:13:01.133Z,8.50
2018-12-21T08:15:28.606Z,8.40
2018-12-21T08:17:56.109Z,8.50
2018-12-21T08:20:23.582Z,8.50
2018-12-21T08:22:51.045Z,8.50
2018-12-21T08:25:18.501Z,8.50
2018-12-21T08:27:45.967Z,8.50
2018-12-21T08:30:13.464Z,8.50
2018-12-21T08:32:40.928Z,8.60
2018-12-21T08:35:08.383Z,8.50
2018-12-21T08:37:35.842Z,8.60
2018-12-21T08:40:04.990Z,8.60
2018-12-21T08:42:32.480Z,8.60
2018-12-21T08:44:59.953Z,8.70
2018-12-21T08:47:27.417Z,8.70
2018-12-21T08:49:54.905Z,8.80
2018-12-21T08:52:22.367Z,8.80
2018-12-21T08:54:49.820Z,8.90
2018-12-21T08:57:17.273Z,8.80
2018-12-21T08:59:44.722Z,8.90
2018-12-21T09:02:12.215Z,8.90
2018-12-21T09:04:39.667Z,8.90
2018-12-21T09:07:07.106Z,8.90
2018-12-21T09:09:34.558Z,8.90
2018-12-21T09:12:02.019Z,8.90
2018-12-21T09:14:29.473Z,9.00
2018-12-21T09:16:56.939Z,9.00
2018-12-21T09:19:24.400Z,9.00
2018-12-21T09:21:51.850Z,9.10
2018-12-21T09:24:19.296Z,9.10
2018-12-21T09:26:46.761Z,9.10
2018-12-21T09:29:14.264Z,9.10
2018-12-21T09:31:41.701Z,9.10
2018-12-21T09:34:09.163Z,9.10
2018-12-21T09:36:36.659Z,9.10
2018-12-21T09:39:05.523Z,9.10
2018-12-21T09:41:33.002Z,9.10
2018-12-21T09:44:00.466Z,9.10
2018-12-21T09:46:27.952Z,9.20
2018-12-21T09:48:55.401Z,9.20
2018-12-21T09:51:22.873Z,9.20
2018-12-21T09:53:50.323Z,9.20
2018-12-21T09:56:17.821Z,9.20
2018-12-21T09:58:45.296Z,9.30
2018-12-21T10:01:12.739Z,9.40
2018-12-21T10:03:40.184Z,9.40
2018-12-21T10:06:07.671Z,9.40
2018-12-21T10:08:35.168Z,9.40
2018-12-21T10:11:02.745Z,9.40
2018-12-21T10:13:30.213Z,9.50
2018-12-21T10:16:19.252Z,9.60
2018-12-21T10:18:46.693Z,9.60
2018-12-21T10:21:14.200Z,9.70
2018-12-21T10:23:41.668Z,9.70
2018-12-21T10:26:09.114Z,9.70
2018-12-21T10:28:36.576Z,9.70
2018-12-21T10:31:04.092Z,9.70
2018-12-21T10:33:32.835Z,9.70
2018-12-21T10:36:00.288Z,9.70
2018-12-21T10:38:28.318Z,9.80
2018-12-21T10:40:55.805Z,9.80
2018-12-21T10:43:23.265Z,9.80
2018-12-21T10:45:50.741Z,9.80
2018-12-21T10:48:18.203Z,9.80
2018-12-21T10:50:45.679Z,9.90
2018-12-21T10:53:13.438Z,10.00
2018-12-21T10:55:40.902Z,9.90
2018-12-21T11:00:59.529Z,9.90
2018-12-21T11:03:26.984Z,10.00
2018-12-21T11:05:55.282Z,10.00
2018-12-21T11:08:22.731Z,10.00
2018-12-21T11:10:50.212Z,10.00
2018-12-21T11:13:17.651Z,10.10
2018-12-21T11:15:45.304Z,10.10
2018-12-21T11:18:12.786Z,10.20
2018-12-21T11:20:40.260Z,10.20
2018-12-21T11:23:07.750Z,10.20
2018-12-21T11:25:35.194Z,10.30
2018-12-21T11:28:02.652Z,10.30
2018-12-21T11:30:30.109Z,10.40
2018-12-21T11:32:57.583Z,10.50
2018-12-21T11:35:25.064Z,10.50
2018-12-21T11:37:52.546Z,10.50
2018-12-21T11:40:20.008Z,10.60
2018-12-21T11:42:47.510Z,10.60
2018-12-21T11:45:15.004Z,10.60
2018-12-21T11:47:42.488Z,10.70
2018-12-21T11:50:10.124Z,10.70
2018-12-21T11:52:37.589Z,10.80
2018-12-21T11:55:05.193Z,10.80
2018-12-21T11:57:32.679Z,10.90
2018-12-21T12:00:00.202Z,11.00
2018-12-21T12:02:27.746Z,11.00
2018-12-21T12:04:55.220Z,11.10
2018-12-21T12:07:22.707Z,11.10
2018-12-21T12:09:50.171Z,11.20
2018-12-21T12:12:17.627Z,11.20
2018-12-21T12:14:45.093Z,11.20
2018-12-21T12:17:12.571Z,11.30
2018-12-21T12:19:40.060Z,11.40
2018-12-21T12:24:41.544Z,11.40
2018-12-21T12:27:09.000Z,11.40
2018-12-21T12:29:36.470Z,11.50
2018-12-21T12:32:03.924Z,11.60
2018-12-21T12:34:31.455Z,11.70
2018-12-21T12:36:58.911Z,11.80
2018-12-21T12:39:26.365Z,11.80
2018-12-21T12:41:53.822Z,11.90
2018-12-21T12:44:21.348Z,12.00
2018-12-21T12:46:48.804Z,12.00
2018-12-21T12:49:16.283Z,12.10
2018-12-21T12:51:54.708Z,12.10
2018-12-21T12:54:22.179Z,12.10
2018-12-21T12:56:49.681Z,12.20
2018-12-21T12:59:17.182Z,12.20
2018-12-21T13:01:44.767Z,12.20
2018-12-21T13:04:12.242Z,12.30
2018-12-21T13:06:39.717Z,12.30
2018-12-21T13:09:07.237Z,12.40
2018-12-21T13:11:34.694Z,12.40
2018-12-21T13:14:02.196Z,12.40
2018-12-21T13:16:29.686Z,12.50
2018-12-21T13:18:57.159Z,12.60
2018-12-21T13:21:24.632Z,12.50
2018-12-21T13:23:52.104Z,12.60
2018-12-21T13:26:19.573Z,12.60
2018-12-21T13:28:47.038Z,12.60
2018-12-21T13:31:14.496Z,12.60
2018-12-21T13:33:41.958Z,12.60
2018-12-21T13:36:09.478Z,12.60
2018-12-21T13:38:36.941Z,12.70
2018-12-21T13:41:04.413Z,12.70
2018-12-21T13:43:31.880Z,12.70
2018-12-21T13:45:59.355Z,12.80
2018-12-21T13:48:26.881Z,12.80
2018-12-21T13:50:54.345Z,12.80
2018-12-21T13:53:21.815Z,12.80
2018-12-21T13:55:49.285Z,12.90
2018-12-21T13:58:16.751Z,12.90
2018-12-21T14:00:44.206Z,12.90
2018-12-21T14:03:11.715Z,12.80
2018-12-21T14:05:39.180Z,12.80
2018-12-21T14:08:06.650Z,12.70
2018-12-21T14:10:34.093Z,12.70
2018-12-21T14:13:01.578Z,12.70
2018-12-21T14:15:29.085Z,12.70
2018-12-21T14:17:56.540Z,12.70
2018-12-21T14:20:23.998Z,12.70
2018-12-21T14:22:51.457Z,12.70
2018-12-21T14:25:18.935Z,12.70
2018-12-21T14:27:46.398Z,12.70
2018-12-21T14:30:13.960Z,12.70
2018-12-21T14:32:41.485Z,12.70
2018-12-21T14:35:08.962Z,12.70
2018-12-21T14:37:36.434Z,12.70
2018-12-21T14:40:04.507Z,12.70
2018-12-21T14:42:31.978Z,12.70
2018-12-21T14:44:59.501Z,12.70
2018-12-21T14:47:26.963Z,12.70
2018-12-21T14:49:55.211Z,12.70
2018-12-21T14:52:22.688Z,12.60
2018-12-21T14:54:50.162Z,12.70
2018-12-21T14:57:17.644Z,12.70
2018-12-21T14:59:45.119Z,12.70
2018-12-21T15:02:12.583Z,12.60
2018-12-21T15:04:40.060Z,12.50
2018-12-21T15:07:07.591Z,12.50
2018-12-21T15:09:35.058Z,12.50
2018-12-21T15:12:02.537Z,12.40
2018-12-21T15:14:29.994Z,12.40
2018-12-21T15:16:57.463Z,12.30
2018-12-21T15:19:24.925Z,12.30
2018-12-21T15:21:52.380Z,12.30
2018-12-21T15:24:19.857Z,12.20
2018-12-21T15:26:47.341Z,12.20
2018-12-21T15:29:14.815Z,12.20
2018-12-21T15:31:41.826Z,12.20
2018-12-21T15:34:09.292Z,12.20
2018-12-21T15:36:36.751Z,12.20
2018-12-21T15:39:05.510Z,12.20
2018-12-21T15:41:32.991Z,12.10
2018-12-21T15:44:00.482Z,12.20
2018-12-21T15:46:27.944Z,12.20
2018-12-21T15:48:55.396Z,12.20
2018-12-21T15:51:22.872Z,12.40
2018-12-21T15:53:50.326Z,12.40
2018-12-21T15:56:17.847Z,12.40
2018-12-21T15:58:45.317Z,12.40
2018-12-21T16:01:12.965Z,12.30
2018-12-21T16:03:41.048Z,12.20
2018-12-21T16:06:08.516Z,12.20
2018-12-21T16:08:36.013Z,12.20
2018-12-21T16:11:03.525Z,12.20
2018-12-21T16:13:31.006Z,12.30
2018-12-21T16:15:58.471Z,12.30
2018-12-21T16:18:25.930Z,12.30
2018-12-21T16:20:53.379Z,12.30
2018-12-21T16:23:20.878Z,12.30
2018-12-21T16:25:48.337Z,12.30
2018-12-21T16:28:15.353Z,12.40
2018-12-21T16:30:42.384Z,12.30
2018-12-21T16:33:09.408Z,12.20
2018-12-21T16:35:36.419Z,12.10
2018-12-21T16:38:03.887Z,12.00
2018-12-21T16:40:31.338Z,12.00
2018-12-21T16:42:58.791Z,12.10
2018-12-21T16:45:26.280Z,12.10
2018-12-21T16:47:53.741Z,12.00
2018-12-21T16:50:21.258Z,12.00
2018-12-21T16:52:48.737Z,12.00
2018-12-21T16:55:16.225Z,11.90
2018-12-21T16:57:45.231Z,11.70
2018-12-21T17:00:12.998Z,11.60
2018-12-21T17:02:40.510Z,11.60
2018-12-21T17:05:09.231Z,11.50
2018-12-21T17:07:36.739Z,11.60
2018-12-21T17:10:07.716Z,11.50
2018-12-21T17:12:35.165Z,11.50
2018-12-21T17:15:02.680Z,11.50
2018-12-21T17:17:30.137Z,11.50
2018-12-21T17:19:57.610Z,11.50
2018-12-21T17:22:25.070Z,11.50
2018-12-21T17:24:52.560Z,11.40
2018-12-21T17:27:20.038Z,11.40
2018-12-21T17:29:47.492Z,11.40
2018-12-21T17:32:14.993Z,11.40
2018-12-21T17:34:42.512Z,11.40
2018-12-21T17:37:09.976Z,11.30
2018-12-21T17:39:37.088Z,11.30
2018-12-21T17:42:04.096Z,11.20
2018-12-21T17:44:31.142Z,11.00
2018-12-21T17:46:58.192Z,10.70
2018-12-21T17:49:25.195Z,10.60
2018-12-21T17:51:52.266Z,10.40
2018-12-21T17:54:19.729Z,10.30
2018-12-21T17:56:47.183Z,10.20
2018-12-21T17:59:14.635Z,10.30
2018-12-21T18:01:42.152Z,10.30
2018-12-21T18:04:10.098Z,10.40
2018-12-21T18:06:37.563Z,10.30
2018-12-21T18:09:06.199Z,10.10
2018-12-21T18:11:33.674Z,10.00
2018-12-21T18:14:01.131Z,10.00
2018-12-21T18:16:28.708Z,9.90
2018-12-21T18:18:56.160Z,9.90
2018-12-21T18:21:24.006Z,9.80
2018-12-21T18:23:51.447Z,9.80
2018-12-21T18:26:18.886Z,9.80
2018-12-21T18:28:46.364Z,9.80
2018-12-21T18:31:14.406Z,9.90
2018-12-21T18:36:32.705Z,9.90
2018-12-21T18:39:00.176Z,9.90
2018-12-21T18:41:27.657Z,9.80
2018-12-21T18:43:55.120Z,9.80
2018-12-21T18:46:22.581Z,9.70
2018-12-21T18:48:50.049Z,9.70
2018-12-21T18:51:17.487Z,9.60
2018-12-21T18:53:44.956Z,9.60
2018-12-21T18:56:14.716Z,9.60
2018-12-21T18:58:42.174Z,9.60
2018-12-21T19:01:09.631Z,9.60
2018-12-21T19:03:37.118Z,9.70
2018-12-21T19:06:04.607Z,9.70
2018-12-21T19:08:32.065Z,9.80
2018-12-21T19:10:59.510Z,9.80
2018-12-21T19:13:27.399Z,9.80
2018-12-21T19:15:54.857Z,9.80
2018-12-21T19:18:22.398Z,9.80
2018-12-21T19:20:49.897Z,9.80
2018-12-21T19:23:17.429Z,9.90
2018-12-21T19:25:44.902Z,9.90
2018-12-21T19:28:12.342Z,9.90
2018-12-21T19:30:39.790Z,9.90
2018-12-21T19:33:07.267Z,9.90
2018-12-21T19:35:34.698Z,9.80
2018-12-21T19:38:02.205Z,9.80
2018-12-21T19:40:29.717Z,9.60
2018-12-21T19:42:57.155Z,9.60
2018-12-21T19:45:24.656Z,9.60
2018-12-21T19:47:52.125Z,9.60
2018-12-21T19:50:19.566Z,9.60
2018-12-21T19:52:47.026Z,9.80
2018-12-21T19:55:19.264Z,9.90
2018-12-21T19:57:46.710Z,9.90
2018-12-21T20:00:14.196Z,10.00
2018-12-21T20:02:41.654Z,9.90
2018-12-21T20:05:09.123Z,10.00
2018-12-21T20:07:36.602Z,10.10
2018-12-21T20:10:06.580Z,10.10
2018-12-21T20:12:34.041Z,10.10
2018-12-21T20:15:01.565Z,10.20
2018-12-21T20:17:29.026Z,10.20
2018-12-21T20:19:56.490Z,10.20
2018-12-21T20:22:23.969Z,10.10
2018-12-21T20:24:51.428Z,10.10
2018-12-21T20:27:18.947Z,10.10
2018-12-21T20:29:46.420Z,10.00
2018-12-21T20:32:13.966Z,10.00
2018-12-21T20:34:41.427Z,10.00
2018-12-21T20:37:08.936Z,10.00
2018-12-21T20:39:36.706Z,9.90
2018-12-21T20:42:04.165Z,10.00
2018-12-21T20:44:31.614Z,10.10
2018-12-21T20:46:59.175Z,10.10
2018-12-21T20:49:26.720Z,10.00
2018-12-21T20:51:54.185Z,10.00
2018-12-21T20:54:21.713Z,10.00
2018-12-21T20:56:49.232Z,9.90
2018-12-21T20:59:16.729Z,9.80
2018-12-21T21:01:44.230Z,9.80
2018-12-21T21:04:11.730Z,9.80
2018-12-21T21:06:39.179Z,9.80
2018-12-21T21:09:07.417Z,9.70
2018-12-21T21:11:34.865Z,9.70
2018-12-21T21:14:02.407Z,9.70
2018-12-21T21:16:29.860Z,9.70
2018-12-21T21:18:57.313Z,9.80
2018-12-21T21:21:24.758Z,9.80
2018-12-21T21:23:52.252Z,9.70
2018-12-21T21:26:19.695Z,9.70
2018-12-21T21:28:47.150Z,9.70
2018-12-21T21:31:14.599Z,9.60
2018-12-21T21:33:42.092Z,9.70
2018-12-21T21:36:09.557Z,9.70
2018-12-21T21:38:37.022Z,9.60
2018-12-21T21:41:04.470Z,9.60
2018-12-21T21:43:31.944Z,9.60
2018-12-21T21:45:59.423Z,9.50
2018-12-21T21:48:26.881Z,9.50
2018-12-21T21:50:54.341Z,9.50
2018-12-21T21:53:22.096Z,9.50
2018-12-21T21:55:49.559Z,9.50
2018-12-21T21:58:17.009Z,9.40
2018-12-21T22:00:44.497Z,9.40
2018-12-21T22:03:12.073Z,9.30
2018-12-21T22:05:39.555Z,9.20
2018-12-21T22:08:07.013Z,9.20
2018-12-21T22:10:34.507Z,9.20
2018-12-21T22:13:02.026Z,9.20
2018-12-21T22:15:29.522Z,9.20
2018-12-21T22:17:56.981Z,9.30
2018-12-21T22:20:24.439Z,9.30
2018-12-21T22:22:51.943Z,9.20
2018-12-21T22:25:19.409Z,9.20
2018-12-21T22:27:48.119Z,9.10
2018-12-21T22:30:15.948Z,9.20
2018-12-21T22:32:43.417Z,9.10
2018-12-21T22:35:10.917Z,9.20
2018-12-21T22:37:38.354Z,9.30
2018-12-21T22:40:05.897Z,9.30
2018-12-21T22:42:33.392Z,9.40
2018-12-21T22:45:00.860Z,9.40
2018-12-21T22:47:28.326Z,9.40
2018-12-21T22:49:55.838Z,9.50
2018-12-21T22:52:23.352Z,9.50
2018-12-21T22:54:50.798Z,9.50
2018-12-21T22:57:18.314Z,9.60
2018-12-21T22:59:45.756Z,9.50
2018-12-21T23:02:13.265Z,9.50
2018-12-21T23:04:40.749Z,9.50
2018-12-21T23:07:08.190Z,9.50
2018-12-21T23:09:35.648Z,9.60
2018-12-21T23:12:03.172Z,9.60
2018-12-21T23:14:30.625Z,9.60
2018-12-21T23:16:58.109Z,9.70
2018-12-21T23:19:25.651Z,9.80
2018-12-21T23:21:53.093Z,9.70
2018-12-21T23:24:20.584Z,9.70
2018-12-21T23:26:48.058Z,9.60
2018-12-21T23:29:15.520Z,9.60
2018-12-21T23:31:42.973Z,9.60
2018-12-21T23:34:10.522Z,9.50
2018-12-21T23:36:37.966Z,9.50
2018-12-21T23:39:06.368Z,9.50
2018-12-21T23:41:33.798Z,9.50
2018-12-21T23:44:01.250Z,9.60
2018-12-21T23:46:28.691Z,9.50
2018-12-21T23:48:56.155Z,9.50
2018-12-21T23:51:23.603Z,9.50
2018-12-21T23:53:51.068Z,9.50
2018-12-21T23:56:18.530Z,9.50
2018-12-21T23:58:45.973Z,9.40
